Terminal Aerodrome Forecast
Issued by NWS

Home | Current Version | Previous Version | Text Only | Print | Product List | Glossary On
Versions: 1 2 3 4 5 6 7 8 9 10 11 12 13 14 15 16 17 18 19 20 21
000
FTUS43 KICT 270144 AAA
TAFCNU
TAF AMD
KCNU 270144Z 2702/2724 19007KT P6SM VCTS SCT060CB BKN120
     FM270500 16005KT P6SM BKN120
     FM270800 18004KT 4SM BR SCT015
     FM271400 12005KT P6SM SCT030=

USA.gov is the U.S. government's official web portal to all federal, state and local government web resources and services.